sensor_id;sensor_type;location;lat;lon;timestamp;P1;durP1;ratioP1;P2;durP2;ratioP2
36663;SDS011;53333;51.976;20.144;2022-07-22T00:00:12;9.23;;;4.53;;
36663;SDS011;53333;51.976;20.144;2022-07-22T00:02:47;12.27;;;5.72;;
36663;SDS011;53333;51.976;20.144;2022-07-22T00:05:21;9.93;;;5.00;;
36663;SDS011;53333;51.976;20.144;2022-07-22T00:07:55;7.57;;;4.93;;
36663;SDS011;53333;51.976;20.144;2022-07-22T00:10:29;9.02;;;4.82;;
36663;SDS011;53333;51.976;20.144;2022-07-22T00:13:04;8.07;;;4.93;;
36663;SDS011;53333;51.976;20.144;2022-07-22T00:15:38;12.27;;;6.13;;
36663;SDS011;53333;51.976;20.144;2022-07-22T00:18:11;6.20;;;4.28;;
36663;SDS011;53333;51.976;20.144;2022-07-22T00:20:45;9.27;;;5.72;;
36663;SDS011;53333;51.976;20.144;2022-07-22T00:23:19;7.47;;;4.60;;
36663;SDS011;53333;51.976;20.144;2022-07-22T00:25:52;9.88;;;5.10;;
36663;SDS011;53333;51.976;20.144;2022-07-22T00:28:27;10.90;;;4.80;;
36663;SDS011;53333;51.976;20.144;2022-07-22T00:31:01;8.90;;;4.95;;
36663;SDS011;53333;51.976;20.144;2022-07-22T00:33:35;10.02;;;4.75;;
36663;SDS011;53333;51.976;20.144;2022-07-22T00:36:08;8.10;;;4.95;;
36663;SDS011;53333;51.976;20.144;2022-07-22T00:38:42;9.20;;;4.75;;
36663;SDS011;53333;51.976;20.144;2022-07-22T00:41:16;6.88;;;4.40;;
36663;SDS011;53333;51.976;20.144;2022-07-22T00:43:52;9.18;;;4.85;;
36663;SDS011;53333;51.976;20.144;2022-07-22T00:46:28;5.82;;;4.55;;
36663;SDS011;53333;51.976;20.144;2022-07-22T00:51:58;9.32;;;5.32;;
36663;SDS011;53333;51.976;20.144;2022-07-22T00:54:32;10.23;;;4.78;;
36663;SDS011;53333;51.976;20.144;2022-07-22T00:57:06;7.60;;;4.95;;
36663;SDS011;53333;51.976;20.144;2022-07-22T00:59:42;10.50;;;5.05;;
36663;SDS011;53333;51.976;20.144;2022-07-22T01:02:15;13.73;;;5.72;;
36663;SDS011;53333;51.976;20.144;2022-07-22T01:04:49;8.10;;;5.65;;
36663;SDS011;53333;51.976;20.144;2022-07-22T01:07:24;9.50;;;5.80;;
36663;SDS011;53333;51.976;20.144;2022-07-22T01:09:58;13.63;;;6.00;;
36663;SDS011;53333;51.976;20.144;2022-07-22T01:12:32;12.05;;;5.80;;
36663;SDS011;53333;51.976;20.144;2022-07-22T01:15:08;9.05;;;5.70;;
36663;SDS011;53333;51.976;20.144;2022-07-22T01:17:42;9.65;;;5.50;;
36663;SDS011;53333;51.976;20.144;2022-07-22T01:20:17;8.55;;;5.50;;
36663;SDS011;53333;51.976;20.144;2022-07-22T01:22:51;13.50;;;5.80;;
36663;SDS011;53333;51.976;20.144;2022-07-22T01:25:25;11.18;;;5.70;;
36663;SDS011;53333;51.976;20.144;2022-07-22T01:27:59;10.43;;;6.22;;
36663;SDS011;53333;51.976;20.144;2022-07-22T01:30:32;11.90;;;5.95;;
36663;SDS011;53333;51.976;20.144;2022-07-22T01:33:06;10.10;;;5.60;;
36663;SDS011;53333;51.976;20.144;2022-07-22T01:35:41;11.15;;;6.10;;
36663;SDS011;53333;51.976;20.144;2022-07-22T01:38:15;12.30;;;6.00;;
36663;SDS011;53333;51.976;20.144;2022-07-22T01:40:49;8.13;;;6.40;;
36663;SDS011;53333;51.976;20.144;2022-07-22T01:43:23;12.98;;;5.32;;
36663;SDS011;53333;51.976;20.144;2022-07-22T01:45:57;11.15;;;5.60;;
36663;SDS011;53333;51.976;20.144;2022-07-22T01:48:31;12.35;;;6.60;;
36663;SDS011;53333;51.976;20.144;2022-07-22T01:51:07;8.55;;;6.18;;
36663;SDS011;53333;51.976;20.144;2022-07-22T01:53:42;7.72;;;5.90;;
36663;SDS011;53333;51.976;20.144;2022-07-22T01:56:16;9.23;;;5.75;;
36663;SDS011;53333;51.976;20.144;2022-07-22T01:58:53;9.95;;;6.35;;
36663;SDS011;53333;51.976;20.144;2022-07-22T02:01:30;12.68;;;6.35;;
36663;SDS011;53333;51.976;20.144;2022-07-22T02:04:05;11.27;;;7.28;;
36663;SDS011;53333;51.976;20.144;2022-07-22T02:06:40;10.55;;;6.78;;
36663;SDS011;53333;51.976;20.144;2022-07-22T02:09:15;11.93;;;6.80;;
36663;SDS011;53333;51.976;20.144;2022-07-22T02:11:53;11.13;;;6.90;;
36663;SDS011;53333;51.976;20.144;2022-07-22T02:14:27;10.10;;;7.78;;
36663;SDS011;53333;51.976;20.144;2022-07-22T02:17:01;10.70;;;6.63;;
36663;SDS011;53333;51.976;20.144;2022-07-22T02:19:35;9.68;;;6.47;;
36663;SDS011;53333;51.976;20.144;2022-07-22T02:22:10;10.68;;;6.80;;
36663;SDS011;53333;51.976;20.144;2022-07-22T02:24:44;12.32;;;6.35;;
36663;SDS011;53333;51.976;20.144;2022-07-22T02:27:18;11.82;;;6.30;;
36663;SDS011;53333;51.976;20.144;2022-07-22T02:29:52;11.10;;;6.05;;
36663;SDS011;53333;51.976;20.144;2022-07-22T02:32:25;9.95;;;6.28;;
36663;SDS011;53333;51.976;20.144;2022-07-22T02:34:59;12.55;;;7.38;;
36663;SDS011;53333;51.976;20.144;2022-07-22T02:37:35;13.63;;;6.75;;
36663;SDS011;53333;51.976;20.144;2022-07-22T02:40:10;10.48;;;6.28;;
36663;SDS011;53333;51.976;20.144;2022-07-22T02:42:44;15.20;;;6.75;;
36663;SDS011;53333;51.976;20.144;2022-07-22T02:45:18;11.20;;;7.28;;
36663;SDS011;53333;51.976;20.144;2022-07-22T02:47:52;7.70;;;6.50;;
36663;SDS011;53333;51.976;20.144;2022-07-22T02:50:28;12.13;;;6.97;;
36663;SDS011;53333;51.976;20.144;2022-07-22T02:53:03;12.50;;;7.28;;
36663;SDS011;53333;51.976;20.144;2022-07-22T02:55:41;17.48;;;8.45;;
36663;SDS011;53333;51.976;20.144;2022-07-22T02:58:15;13.57;;;7.57;;
36663;SDS011;53333;51.976;20.144;2022-07-22T03:00:49;11.93;;;7.05;;
36663;SDS011;53333;51.976;20.144;2022-07-22T03:03:23;16.42;;;7.47;;
36663;SDS011;53333;51.976;20.144;2022-07-22T03:05:58;13.05;;;7.28;;
36663;SDS011;53333;51.976;20.144;2022-07-22T03:08:42;12.27;;;7.45;;
36663;SDS011;53333;51.976;20.144;2022-07-22T03:11:17;14.60;;;7.85;;
36663;SDS011;53333;51.976;20.144;2022-07-22T03:13:51;13.60;;;7.85;;
36663;SDS011;53333;51.976;20.144;2022-07-22T03:16:24;12.02;;;7.45;;
36663;SDS011;53333;51.976;20.144;2022-07-22T03:18:59;12.27;;;8.13;;
36663;SDS011;53333;51.976;20.144;2022-07-22T03:21:33;15.30;;;8.57;;
36663;SDS011;53333;51.976;20.144;2022-07-22T03:24:08;18.27;;;8.55;;
36663;SDS011;53333;51.976;20.144;2022-07-22T03:26:42;14.70;;;7.57;;
36663;SDS011;53333;51.976;20.144;2022-07-22T03:29:15;16.40;;;8.10;;
36663;SDS011;53333;51.976;20.144;2022-07-22T03:31:55;13.02;;;7.75;;
36663;SDS011;53333;51.976;20.144;2022-07-22T03:34:42;23.27;;;8.57;;
36663;SDS011;53333;51.976;20.144;2022-07-22T03:37:16;17.08;;;8.82;;
36663;SDS011;53333;51.976;20.144;2022-07-22T03:39:51;15.10;;;7.75;;
36663;SDS011;53333;51.976;20.144;2022-07-22T03:42:24;20.70;;;7.90;;
36663;SDS011;53333;51.976;20.144;2022-07-22T03:44:58;15.82;;;8.18;;
36663;SDS011;53333;51.976;20.144;2022-07-22T03:47:32;14.13;;;7.82;;
36663;SDS011;53333;51.976;20.144;2022-07-22T03:50:06;11.70;;;7.88;;
36663;SDS011;53333;51.976;20.144;2022-07-22T03:52:40;17.48;;;8.63;;
36663;SDS011;53333;51.976;20.144;2022-07-22T03:55:16;12.55;;;8.18;;
36663;SDS011;53333;51.976;20.144;2022-07-22T03:57:53;16.42;;;8.07;;
36663;SDS011;53333;51.976;20.144;2022-07-22T04:00:31;18.55;;;10.70;;
36663;SDS011;53333;51.976;20.144;2022-07-22T04:03:07;15.27;;;8.32;;
36663;SDS011;53333;51.976;20.144;2022-07-22T04:05:59;13.75;;;8.52;;
36663;SDS011;53333;51.976;20.144;2022-07-22T04:08:47;12.75;;;7.18;;
36663;SDS011;53333;51.976;20.144;2022-07-22T04:11:23;12.30;;;7.60;;
36663;SDS011;53333;51.976;20.144;2022-07-22T04:13:57;11.05;;;7.88;;
36663;SDS011;53333;51.976;20.144;2022-07-22T04:16:30;11.20;;;7.65;;
36663;SDS011;53333;51.976;20.144;2022-07-22T04:19:10;15.55;;;7.47;;
36663;SDS011;53333;51.976;20.144;2022-07-22T04:21:59;13.32;;;8.80;;
36663;SDS011;53333;51.976;20.144;2022-07-22T04:24:34;15.15;;;7.93;;
36663;SDS011;53333;51.976;20.144;2022-07-22T04:27:09;18.20;;;8.13;;
36663;SDS011;53333;51.976;20.144;2022-07-22T04:29:43;12.20;;;7.53;;
36663;SDS011;53333;51.976;20.144;2022-07-22T04:32:17;14.82;;;8.80;;
36663;SDS011;53333;51.976;20.144;2022-07-22T04:34:51;22.27;;;12.93;;
36663;SDS011;53333;51.976;20.144;2022-07-22T04:37:24;16.63;;;10.23;;
36663;SDS011;53333;51.976;20.144;2022-07-22T04:39:58;15.85;;;7.65;;
36663;SDS011;53333;51.976;20.144;2022-07-22T04:42:34;14.35;;;8.50;;
36663;SDS011;53333;51.976;20.144;2022-07-22T04:45:08;14.50;;;8.75;;
36663;SDS011;53333;51.976;20.144;2022-07-22T04:47:47;12.50;;;8.07;;
36663;SDS011;53333;51.976;20.144;2022-07-22T04:50:21;12.80;;;7.88;;
36663;SDS011;53333;51.976;20.144;2022-07-22T04:53:03;14.18;;;7.57;;
36663;SDS011;53333;51.976;20.144;2022-07-22T04:55:37;16.30;;;9.20;;
36663;SDS011;53333;51.976;20.144;2022-07-22T04:58:12;17.23;;;8.80;;
36663;SDS011;53333;51.976;20.144;2022-07-22T05:00:50;16.98;;;8.13;;
36663;SDS011;53333;51.976;20.144;2022-07-22T05:03:24;11.27;;;7.30;;
36663;SDS011;53333;51.976;20.144;2022-07-22T05:05:58;12.13;;;7.10;;
36663;SDS011;53333;51.976;20.144;2022-07-22T05:08:38;8.68;;;6.50;;
36663;SDS011;53333;51.976;20.144;2022-07-22T05:11:12;10.80;;;7.15;;
36663;SDS011;53333;51.976;20.144;2022-07-22T05:13:47;12.18;;;6.45;;
36663;SDS011;53333;51.976;20.144;2022-07-22T05:16:21;16.13;;;7.45;;
36663;SDS011;53333;51.976;20.144;2022-07-22T05:18:55;33.88;;;21.60;;
36663;SDS011;53333;51.976;20.144;2022-07-22T05:21:30;19.13;;;10.73;;
36663;SDS011;53333;51.976;20.144;2022-07-22T05:24:04;11.90;;;6.78;;
36663;SDS011;53333;51.976;20.144;2022-07-22T05:26:39;9.15;;;7.35;;
36663;SDS011;53333;51.976;20.144;2022-07-22T05:29:14;15.95;;;9.40;;
36663;SDS011;53333;51.976;20.144;2022-07-22T05:31:48;15.18;;;7.32;;
36663;SDS011;53333;51.976;20.144;2022-07-22T05:34:22;24.63;;;7.90;;
36663;SDS011;53333;51.976;20.144;2022-07-22T05:36:58;11.73;;;7.05;;
36663;SDS011;53333;51.976;20.144;2022-07-22T05:39:32;14.05;;;7.53;;
36663;SDS011;53333;51.976;20.144;2022-07-22T05:42:06;19.98;;;8.57;;
36663;SDS011;53333;51.976;20.144;2022-07-22T05:44:41;11.45;;;7.82;;
36663;SDS011;53333;51.976;20.144;2022-07-22T05:47:15;21.55;;;9.10;;
36663;SDS011;53333;51.976;20.144;2022-07-22T05:49:48;17.25;;;10.02;;
36663;SDS011;53333;51.976;20.144;2022-07-22T05:52:23;17.85;;;9.90;;
36663;SDS011;53333;51.976;20.144;2022-07-22T05:54:58;25.67;;;11.80;;
36663;SDS011;53333;51.976;20.144;2022-07-22T05:57:32;20.35;;;11.07;;
36663;SDS011;53333;51.976;20.144;2022-07-22T06:00:08;20.58;;;11.15;;
36663;SDS011;53333;51.976;20.144;2022-07-22T06:02:47;18.50;;;11.43;;
36663;SDS011;53333;51.976;20.144;2022-07-22T06:05:23;33.35;;;14.40;;
36663;SDS011;53333;51.976;20.144;2022-07-22T06:08:11;16.42;;;12.00;;
36663;SDS011;53333;51.976;20.144;2022-07-22T06:10:51;18.23;;;12.07;;
36663;SDS011;53333;51.976;20.144;2022-07-22T06:13:25;17.33;;;12.00;;
36663;SDS011;53333;51.976;20.144;2022-07-22T06:16:02;21.75;;;12.32;;
36663;SDS011;53333;51.976;20.144;2022-07-22T06:18:37;25.30;;;12.77;;
36663;SDS011;53333;51.976;20.144;2022-07-22T06:21:11;22.75;;;13.35;;
36663;SDS011;53333;51.976;20.144;2022-07-22T06:23:44;19.67;;;13.00;;
36663;SDS011;53333;51.976;20.144;2022-07-22T06:26:18;36.55;;;14.75;;
36663;SDS011;53333;51.976;20.144;2022-07-22T06:28:53;23.33;;;14.30;;
36663;SDS011;53333;51.976;20.144;2022-07-22T06:31:31;19.95;;;13.95;;
36663;SDS011;53333;51.976;20.144;2022-07-22T06:34:05;21.10;;;13.63;;
36663;SDS011;53333;51.976;20.144;2022-07-22T06:36:57;19.65;;;14.57;;
36663;SDS011;53333;51.976;20.144;2022-07-22T06:39:31;28.92;;;14.93;;
36663;SDS011;53333;51.976;20.144;2022-07-22T06:42:20;19.60;;;13.88;;
36663;SDS011;53333;51.976;20.144;2022-07-22T06:45:14;22.33;;;13.68;;
36663;SDS011;53333;51.976;20.144;2022-07-22T06:48:12;17.67;;;13.27;;
36663;SDS011;53333;51.976;20.144;2022-07-22T06:50:46;21.90;;;13.85;;
36663;SDS011;53333;51.976;20.144;2022-07-22T06:53:24;18.30;;;13.32;;
36663;SDS011;53333;51.976;20.144;2022-07-22T06:55:58;21.67;;;13.30;;
36663;SDS011;53333;51.976;20.144;2022-07-22T06:58:37;24.63;;;17.63;;
36663;SDS011;53333;51.976;20.144;2022-07-22T07:01:14;17.35;;;14.20;;
36663;SDS011;53333;51.976;20.144;2022-07-22T07:04:01;17.27;;;12.95;;
36663;SDS011;53333;51.976;20.144;2022-07-22T07:06:35;17.98;;;13.05;;
36663;SDS011;53333;51.976;20.144;2022-07-22T07:09:19;20.48;;;13.45;;
36663;SDS011;53333;51.976;20.144;2022-07-22T07:12:05;17.67;;;13.90;;
36663;SDS011;53333;51.976;20.144;2022-07-22T07:14:58;18.92;;;12.50;;
36663;SDS011;53333;51.976;20.144;2022-07-22T07:17:52;19.70;;;12.45;;
36663;SDS011;53333;51.976;20.144;2022-07-22T07:20:27;16.98;;;12.15;;
36663;SDS011;53333;51.976;20.144;2022-07-22T07:23:02;19.33;;;12.15;;
36663;SDS011;53333;51.976;20.144;2022-07-22T07:25:44;13.95;;;12.52;;
36663;SDS011;53333;51.976;20.144;2022-07-22T07:28:21;16.00;;;12.25;;
36663;SDS011;53333;51.976;20.144;2022-07-22T07:31:02;16.05;;;10.73;;
36663;SDS011;53333;51.976;20.144;2022-07-22T07:33:36;13.57;;;11.63;;
36663;SDS011;53333;51.976;20.144;2022-07-22T07:36:15;14.23;;;11.10;;
36663;SDS011;53333;51.976;20.144;2022-07-22T07:38:53;14.93;;;11.25;;
36663;SDS011;53333;51.976;20.144;2022-07-22T07:41:28;15.40;;;11.68;;
36663;SDS011;53333;51.976;20.144;2022-07-22T07:44:05;16.63;;;11.02;;
36663;SDS011;53333;51.976;20.144;2022-07-22T07:46:42;13.75;;;11.25;;
36663;SDS011;53333;51.976;20.144;2022-07-22T07:49:15;15.98;;;11.07;;
36663;SDS011;53333;51.976;20.144;2022-07-22T07:51:51;15.07;;;11.40;;
36663;SDS011;53333;51.976;20.144;2022-07-22T07:54:26;13.32;;;10.63;;
36663;SDS011;53333;51.976;20.144;2022-07-22T07:57:07;15.70;;;11.88;;
36663;SDS011;53333;51.976;20.144;2022-07-22T07:59:44;14.82;;;12.75;;
36663;SDS011;53333;51.976;20.144;2022-07-22T08:02:19;15.20;;;11.02;;
36663;SDS011;53333;51.976;20.144;2022-07-22T08:04:53;13.73;;;10.90;;
36663;SDS011;53333;51.976;20.144;2022-07-22T08:07:31;15.38;;;11.52;;
36663;SDS011;53333;51.976;20.144;2022-07-22T08:10:06;12.65;;;10.63;;
36663;SDS011;53333;51.976;20.144;2022-07-22T08:13:15;15.02;;;10.85;;
36663;SDS011;53333;51.976;20.144;2022-07-22T08:15:53;15.20;;;12.32;;
36663;SDS011;53333;51.976;20.144;2022-07-22T08:18:30;15.52;;;11.73;;
36663;SDS011;53333;51.976;20.144;2022-07-22T08:21:04;18.08;;;11.77;;
36663;SDS011;53333;51.976;20.144;2022-07-22T08:24:00;16.05;;;11.18;;
36663;SDS011;53333;51.976;20.144;2022-07-22T08:26:34;13.55;;;10.63;;
36663;SDS011;53333;51.976;20.144;2022-07-22T08:29:08;13.77;;;10.57;;
36663;SDS011;53333;51.976;20.144;2022-07-22T08:31:42;17.48;;;12.13;;
36663;SDS011;53333;51.976;20.144;2022-07-22T08:34:19;16.83;;;11.38;;
36663;SDS011;53333;51.976;20.144;2022-07-22T08:36:53;14.85;;;11.40;;
36663;SDS011;53333;51.976;20.144;2022-07-22T08:39:29;14.25;;;10.02;;
36663;SDS011;53333;51.976;20.144;2022-07-22T08:42:03;14.57;;;11.02;;
36663;SDS011;53333;51.976;20.144;2022-07-22T08:44:37;11.73;;;10.55;;
36663;SDS011;53333;51.976;20.144;2022-07-22T08:47:11;15.75;;;10.18;;
36663;SDS011;53333;51.976;20.144;2022-07-22T08:50:31;14.23;;;9.27;;
36663;SDS011;53333;51.976;20.144;2022-07-22T08:53:21;13.23;;;9.55;;
36663;SDS011;53333;51.976;20.144;2022-07-22T08:55:59;12.63;;;9.57;;
36663;SDS011;53333;51.976;20.144;2022-07-22T08:58:33;14.38;;;10.25;;
36663;SDS011;53333;51.976;20.144;2022-07-22T09:01:08;12.18;;;8.27;;
36663;SDS011;53333;51.976;20.144;2022-07-22T09:03:52;12.63;;;9.45;;
36663;SDS011;53333;51.976;20.144;2022-07-22T09:06:32;14.38;;;8.98;;
36663;SDS011;53333;51.976;20.144;2022-07-22T09:09:08;10.70;;;8.90;;
36663;SDS011;53333;51.976;20.144;2022-07-22T09:12:18;12.30;;;9.13;;
36663;SDS011;53333;51.976;20.144;2022-07-22T09:15:15;9.57;;;8.57;;
36663;SDS011;53333;51.976;20.144;2022-07-22T09:17:58;9.20;;;8.27;;
36663;SDS011;53333;51.976;20.144;2022-07-22T09:20:43;11.65;;;8.68;;
36663;SDS011;53333;51.976;20.144;2022-07-22T09:23:49;8.65;;;7.85;;
36663;SDS011;53333;51.976;20.144;2022-07-22T09:26:31;12.35;;;8.07;;
36663;SDS011;53333;51.976;20.144;2022-07-22T09:29:26;8.95;;;7.50;;
36663;SDS011;53333;51.976;20.144;2022-07-22T09:32:17;8.25;;;7.43;;
36663;SDS011;53333;51.976;20.144;2022-07-22T09:35:01;8.95;;;8.05;;
36663;SDS011;53333;51.976;20.144;2022-07-22T09:37:48;10.40;;;7.60;;
36663;SDS011;53333;51.976;20.144;2022-07-22T09:40:24;8.63;;;7.70;;
36663;SDS011;53333;51.976;20.144;2022-07-22T09:43:01;9.27;;;7.05;;
36663;SDS011;53333;51.976;20.144;2022-07-22T09:45:43;9.63;;;7.65;;
36663;SDS011;53333;51.976;20.144;2022-07-22T09:48:20;9.07;;;7.00;;
36663;SDS011;53333;51.976;20.144;2022-07-22T09:51:14;9.57;;;7.53;;
36663;SDS011;53333;51.976;20.144;2022-07-22T09:54:06;9.57;;;7.18;;
36663;SDS011;53333;51.976;20.144;2022-07-22T09:56:41;9.55;;;7.50;;
36663;SDS011;53333;51.976;20.144;2022-07-22T09:59:16;10.38;;;7.32;;
36663;SDS011;53333;51.976;20.144;2022-07-22T10:01:58;9.80;;;6.97;;
36663;SDS011;53333;51.976;20.144;2022-07-22T10:04:36;7.93;;;6.35;;
36663;SDS011;53333;51.976;20.144;2022-07-22T10:07:16;8.23;;;7.35;;
36663;SDS011;53333;51.976;20.144;2022-07-22T10:09:50;8.02;;;7.28;;
36663;SDS011;53333;51.976;20.144;2022-07-22T10:12:26;7.70;;;6.85;;
36663;SDS011;53333;51.976;20.144;2022-07-22T10:15:00;8.05;;;7.20;;
36663;SDS011;53333;51.976;20.144;2022-07-22T10:17:36;8.65;;;7.38;;
36663;SDS011;53333;51.976;20.144;2022-07-22T10:20:12;12.10;;;7.45;;
36663;SDS011;53333;51.976;20.144;2022-07-22T10:22:47;10.23;;;6.82;;
36663;SDS011;53333;51.976;20.144;2022-07-22T10:25:30;9.60;;;7.22;;
36663;SDS011;53333;51.976;20.144;2022-07-22T10:28:05;8.25;;;7.30;;
36663;SDS011;53333;51.976;20.144;2022-07-22T10:30:39;10.60;;;7.15;;
36663;SDS011;53333;51.976;20.144;2022-07-22T10:33:15;9.68;;;8.27;;
36663;SDS011;53333;51.976;20.144;2022-07-22T10:35:52;8.13;;;7.32;;
36663;SDS011;53333;51.976;20.144;2022-07-22T10:38:30;9.77;;;7.45;;
36663;SDS011;53333;51.976;20.144;2022-07-22T10:41:05;7.50;;;6.85;;
36663;SDS011;53333;51.976;20.144;2022-07-22T10:43:45;8.48;;;7.60;;
36663;SDS011;53333;51.976;20.144;2022-07-22T10:46:20;8.18;;;7.38;;
36663;SDS011;53333;51.976;20.144;2022-07-22T10:49:25;7.43;;;6.72;;
36663;SDS011;53333;51.976;20.144;2022-07-22T10:52:08;10.15;;;7.03;;
36663;SDS011;53333;51.976;20.144;2022-07-22T10:57:51;8.68;;;6.68;;
36663;SDS011;53333;51.976;20.144;2022-07-22T11:00:24;8.45;;;6.70;;
36663;SDS011;53333;51.976;20.144;2022-07-22T11:02:58;10.98;;;6.45;;
36663;SDS011;53333;51.976;20.144;2022-07-22T11:05:35;8.95;;;6.72;;
36663;SDS011;53333;51.976;20.144;2022-07-22T11:08:08;10.07;;;6.97;;
36663;SDS011;53333;51.976;20.144;2022-07-22T11:10:46;9.68;;;6.82;;
36663;SDS011;53333;51.976;20.144;2022-07-22T11:13:30;10.98;;;6.85;;
36663;SDS011;53333;51.976;20.144;2022-07-22T11:16:14;19.30;;;7.10;;
36663;SDS011;53333;51.976;20.144;2022-07-22T11:18:50;12.10;;;6.70;;
36663;SDS011;53333;51.976;20.144;2022-07-22T11:21:28;10.18;;;7.45;;
36663;SDS011;53333;51.976;20.144;2022-07-22T11:24:04;11.82;;;7.18;;
36663;SDS011;53333;51.976;20.144;2022-07-22T11:26:40;8.23;;;7.28;;
36663;SDS011;53333;51.976;20.144;2022-07-22T11:29:16;8.13;;;7.30;;
36663;SDS011;53333;51.976;20.144;2022-07-22T11:31:57;12.27;;;7.40;;
36663;SDS011;53333;51.976;20.144;2022-07-22T11:34:31;11.70;;;7.88;;
36663;SDS011;53333;51.976;20.144;2022-07-22T11:37:06;12.65;;;8.23;;
36663;SDS011;53333;51.976;20.144;2022-07-22T11:39:40;9.07;;;7.80;;
36663;SDS011;53333;51.976;20.144;2022-07-22T11:42:14;7.88;;;7.00;;
36663;SDS011;53333;51.976;20.144;2022-07-22T11:44:47;7.65;;;6.88;;
36663;SDS011;53333;51.976;20.144;2022-07-22T11:47:23;7.55;;;6.53;;
36663;SDS011;53333;51.976;20.144;2022-07-22T11:49:57;8.30;;;7.45;;
36663;SDS011;53333;51.976;20.144;2022-07-22T11:52:32;8.75;;;6.88;;
36663;SDS011;53333;51.976;20.144;2022-07-22T11:55:14;13.43;;;8.25;;
36663;SDS011;53333;51.976;20.144;2022-07-22T11:57:48;8.70;;;7.38;;
36663;SDS011;53333;51.976;20.144;2022-07-22T12:00:22;9.60;;;7.70;;
36663;SDS011;53333;51.976;20.144;2022-07-22T12:02:56;8.38;;;7.28;;
36663;SDS011;53333;51.976;20.144;2022-07-22T12:05:30;12.10;;;7.30;;
36663;SDS011;53333;51.976;20.144;2022-07-22T12:08:06;10.50;;;6.57;;
36663;SDS011;53333;51.976;20.144;2022-07-22T12:10:39;26.48;;;7.70;;
36663;SDS011;53333;51.976;20.144;2022-07-22T12:13:13;10.00;;;6.90;;
36663;SDS011;53333;51.976;20.144;2022-07-22T12:15:47;8.75;;;7.25;;
36663;SDS011;53333;51.976;20.144;2022-07-22T12:18:21;9.77;;;7.55;;
36663;SDS011;53333;51.976;20.144;2022-07-22T12:20:56;11.70;;;7.55;;
36663;SDS011;53333;51.976;20.144;2022-07-22T12:23:31;9.82;;;7.03;;
36663;SDS011;53333;51.976;20.144;2022-07-22T12:26:04;9.95;;;7.05;;
36663;SDS011;53333;51.976;20.144;2022-07-22T12:28:41;12.70;;;7.30;;
36663;SDS011;53333;51.976;20.144;2022-07-22T12:31:14;10.70;;;7.15;;
36663;SDS011;53333;51.976;20.144;2022-07-22T12:33:48;12.45;;;7.03;;
36663;SDS011;53333;51.976;20.144;2022-07-22T12:36:22;9.70;;;7.03;;
36663;SDS011;53333;51.976;20.144;2022-07-22T12:39:14;7.25;;;6.55;;
36663;SDS011;53333;51.976;20.144;2022-07-22T12:41:50;8.52;;;6.90;;
36663;SDS011;53333;51.976;20.144;2022-07-22T12:44:25;7.95;;;7.25;;
36663;SDS011;53333;51.976;20.144;2022-07-22T12:47:06;10.57;;;7.47;;
36663;SDS011;53333;51.976;20.144;2022-07-22T12:49:39;9.50;;;7.10;;
36663;SDS011;53333;51.976;20.144;2022-07-22T12:52:13;13.05;;;7.10;;
36663;SDS011;53333;51.976;20.144;2022-07-22T12:54:48;9.57;;;7.35;;
36663;SDS011;53333;51.976;20.144;2022-07-22T12:57:22;6.95;;;6.22;;
36663;SDS011;53333;51.976;20.144;2022-07-22T12:59:56;7.72;;;6.32;;
36663;SDS011;53333;51.976;20.144;2022-07-22T13:02:29;8.00;;;6.95;;
36663;SDS011;53333;51.976;20.144;2022-07-22T13:05:03;7.53;;;6.82;;
36663;SDS011;53333;51.976;20.144;2022-07-22T13:07:37;9.65;;;6.63;;
36663;SDS011;53333;51.976;20.144;2022-07-22T13:10:15;12.32;;;9.13;;
36663;SDS011;53333;51.976;20.144;2022-07-22T13:12:53;10.98;;;6.03;;
36663;SDS011;53333;51.976;20.144;2022-07-22T13:15:27;13.27;;;7.68;;
36663;SDS011;53333;51.976;20.144;2022-07-22T13:18:05;8.25;;;7.30;;
36663;SDS011;53333;51.976;20.144;2022-07-22T13:20:39;11.18;;;7.30;;
36663;SDS011;53333;51.976;20.144;2022-07-22T13:23:13;11.75;;;7.30;;
36663;SDS011;53333;51.976;20.144;2022-07-22T13:25:48;9.20;;;6.80;;
36663;SDS011;53333;51.976;20.144;2022-07-22T13:28:26;15.90;;;6.88;;
36663;SDS011;53333;51.976;20.144;2022-07-22T13:31:00;14.38;;;6.80;;
36663;SDS011;53333;51.976;20.144;2022-07-22T13:33:33;8.02;;;6.63;;
36663;SDS011;53333;51.976;20.144;2022-07-22T13:36:07;8.23;;;6.47;;
36663;SDS011;53333;51.976;20.144;2022-07-22T13:38:41;10.40;;;7.65;;
36663;SDS011;53333;51.976;20.144;2022-07-22T13:41:16;22.02;;;17.67;;
36663;SDS011;53333;51.976;20.144;2022-07-22T13:43:49;9.13;;;7.20;;
36663;SDS011;53333;51.976;20.144;2022-07-22T13:46:23;9.27;;;6.75;;
36663;SDS011;53333;51.976;20.144;2022-07-22T13:48:57;8.73;;;6.93;;
36663;SDS011;53333;51.976;20.144;2022-07-22T13:51:31;7.75;;;6.15;;
36663;SDS011;53333;51.976;20.144;2022-07-22T13:54:05;7.13;;;5.53;;
36663;SDS011;53333;51.976;20.144;2022-07-22T13:56:40;7.00;;;6.10;;
36663;SDS011;53333;51.976;20.144;2022-07-22T13:59:16;7.10;;;5.97;;
36663;SDS011;53333;51.976;20.144;2022-07-22T14:01:50;8.63;;;5.97;;
36663;SDS011;53333;51.976;20.144;2022-07-22T14:04:24;11.02;;;6.38;;
36663;SDS011;53333;51.976;20.144;2022-07-22T14:06:58;6.25;;;5.65;;
36663;SDS011;53333;51.976;20.144;2022-07-22T14:09:32;8.57;;;6.13;;
36663;SDS011;53333;51.976;20.144;2022-07-22T14:12:08;9.00;;;5.70;;
36663;SDS011;53333;51.976;20.144;2022-07-22T14:14:42;9.40;;;6.50;;
36663;SDS011;53333;51.976;20.144;2022-07-22T14:17:16;7.93;;;6.20;;
36663;SDS011;53333;51.976;20.144;2022-07-22T14:19:55;11.77;;;6.13;;
36663;SDS011;53333;51.976;20.144;2022-07-22T14:22:32;9.40;;;5.93;;
36663;SDS011;53333;51.976;20.144;2022-07-22T14:25:06;7.80;;;5.90;;
36663;SDS011;53333;51.976;20.144;2022-07-22T14:27:41;6.78;;;5.55;;
36663;SDS011;53333;51.976;20.144;2022-07-22T14:30:15;11.77;;;6.82;;
36663;SDS011;53333;51.976;20.144;2022-07-22T14:32:49;8.50;;;5.95;;
36663;SDS011;53333;51.976;20.144;2022-07-22T14:35:23;9.93;;;6.30;;
36663;SDS011;53333;51.976;20.144;2022-07-22T14:37:57;8.50;;;6.30;;
36663;SDS011;53333;51.976;20.144;2022-07-22T14:40:30;7.43;;;5.53;;
36663;SDS011;53333;51.976;20.144;2022-07-22T14:43:05;7.90;;;5.75;;
36663;SDS011;53333;51.976;20.144;2022-07-22T14:45:59;6.93;;;6.07;;
36663;SDS011;53333;51.976;20.144;2022-07-22T14:48:33;6.20;;;5.60;;
36663;SDS011;53333;51.976;20.144;2022-07-22T14:51:07;6.68;;;6.05;;
36663;SDS011;53333;51.976;20.144;2022-07-22T14:53:41;7.13;;;6.25;;
36663;SDS011;53333;51.976;20.144;2022-07-22T14:56:14;8.10;;;5.93;;
36663;SDS011;53333;51.976;20.144;2022-07-22T14:58:50;8.25;;;5.95;;
36663;SDS011;53333;51.976;20.144;2022-07-22T15:01:24;8.25;;;5.97;;
36663;SDS011;53333;51.976;20.144;2022-07-22T15:03:58;16.15;;;14.10;;
36663;SDS011;53333;51.976;20.144;2022-07-22T15:06:33;7.32;;;6.57;;
36663;SDS011;53333;51.976;20.144;2022-07-22T15:09:06;7.15;;;5.70;;
36663;SDS011;53333;51.976;20.144;2022-07-22T15:11:40;7.15;;;5.53;;
36663;SDS011;53333;51.976;20.144;2022-07-22T15:14:15;10.63;;;6.35;;
36663;SDS011;53333;51.976;20.144;2022-07-22T15:16:49;7.97;;;6.60;;
36663;SDS011;53333;51.976;20.144;2022-07-22T15:19:23;6.25;;;5.60;;
36663;SDS011;53333;51.976;20.144;2022-07-22T15:21:58;6.40;;;5.80;;
36663;SDS011;53333;51.976;20.144;2022-07-22T15:24:31;8.85;;;6.85;;